Briefing drone pour Selles-sur-cher

Rechercher une autre localisation

Conditions de vol :


Nous sommes le : Mardi 13 avril 2021
Il est 17:10 UTC (19:10 LT)

Lever de soleil : 04:42 UTC (06:42 LT)
Coucher de soleil : 19:06 UTC (21:06 LT)

Météo

L'essentiel des conditions de vol

VIGILANCE MÉTÉO FRANCE - Loir-et-Cher (41)
Pas de vigilances particulieres
METAR de LFYR
LFYR 131700Z AUTO 07009KT 020V090 CAVOK 11/M03 Q1028

Date d'émission: 13/04/2021
Heure d'émission: 17:00 UTC
Vent: 070° (variable du 020° au 090°) pour 9 KT (17 km/h)
Visibilité horizontale: > 10 km
Plafond : Plafond et visibilité OK (CAVOK)
Température: 11 °C
Point de rosée: -3 °C
Humidité: 37%
Pression (QNH): 1028 hPa
TAF de LFYR
LFYR 131400Z 1315/1415 03009KT CAVOK

Conditions prévues :

Heure d'émission : Bulletin éffectué le 13 à 15:00 UTC
Prévision : Valide du 13 a 15:00 UTC au 14 a 15:00 UTC
Vent : 30° pour 9 KT (17 km/h)
Visibilité : > 10 km
WEBCAM POUR SELLES-SUR-CHER

Réglementation

Voler en sécurité

CARTES AERONAUTIQUE 1/500.000
CARTES VAC (LFYR)
SUP AIP




Chargement des AIP...
NOTAM (SELLES-SUR-CHER + Terrain à proximité / FIR )




Chargement des NOTAMS...
CONTACT PREFECTURE 41
Loir-et-Cher (41) : pref-bpas@loir-et-cher.gouv.fr


Avertissement : Les données mises à disposition sont indicatives. Oxygène Drone ne pourra être tenu responsable de dégâts causés aux biens et aux personnes.